X  Sluiten METAR luchtvaart weer gegevens      EHEH Eindhoven Airport
Temperatuur
3°C Temperatuur
2°C Dauwpunt
93% Vochtigheid



Wind
13 KM/U
8 MPH
4 M/S
7 KTS



230°
ZW
Huidig weer

Mist Mist
Luchtdruk 1022.92 (hPa) - 30.21 (inHg)
Zicht 4.3 (mijl) - 7 (km)
Vliegveld
Vliegveld code EHEH

Locatie : Eindhoven Airport
Afstand: 50 (km)

Metar:
EHEH 180458Z AUTO 23007KT 200V260 7000 BR SCT004 BKN006 OVC007 03/02 Q1023 YLO

Tijd: 18-01-2021 05:58 CET